sensor_id;sensor_type;location;lat;lon;timestamp;pressure;altitude;pressure_sealevel;temperature
75658;BMP280;64255;49.892;17.884;2023-05-13T05:02:32;99219.72;;;11.31
75658;BMP280;64255;49.892;17.884;2023-05-13T05:05:19;99211.69;;;11.41
75658;BMP280;64255;49.892;17.884;2023-05-13T05:08:05;99223.72;;;11.36
75658;BMP280;64255;49.892;17.884;2023-05-13T05:10:52;99232.19;;;11.53
75658;BMP280;64255;49.892;17.884;2023-05-13T05:13:38;99223.44;;;12.10
75658;BMP280;64255;49.892;17.884;2023-05-13T05:16:25;99230.22;;;12.45
75658;BMP280;64255;49.892;17.884;2023-05-13T05:19:11;99233.91;;;12.71
75658;BMP280;64255;49.892;17.884;2023-05-13T05:21:58;99238.41;;;12.65
75658;BMP280;64255;49.892;17.884;2023-05-13T05:24:44;99236.13;;;12.73
75658;BMP280;64255;49.892;17.884;2023-05-13T05:27:31;99237.78;;;12.70
75658;BMP280;64255;49.892;17.884;2023-05-13T05:30:17;99242.44;;;12.85
75658;BMP280;64255;49.892;17.884;2023-05-13T05:33:07;99242.00;;;13.01
75658;BMP280;64255;49.892;17.884;2023-05-13T05:35:54;99249.72;;;13.09
75658;BMP280;64255;49.892;17.884;2023-05-13T05:38:41;99250.97;;;12.98
75658;BMP280;64255;49.892;17.884;2023-05-13T05:41:27;99252.41;;;13.09
75658;BMP280;64255;49.892;17.884;2023-05-13T05:44:14;99252.41;;;13.09
75658;BMP280;64255;49.892;17.884;2023-05-13T05:47:00;99248.69;;;13.36
75658;BMP280;64255;49.892;17.884;2023-05-13T05:49:47;99257.81;;;13.59
75658;BMP280;64255;49.892;17.884;2023-05-13T05:52:33;99255.72;;;13.48
75658;BMP280;64255;49.892;17.884;2023-05-13T05:55:20;99263.88;;;13.54
75658;BMP280;64255;49.892;17.884;2023-05-13T05:58:09;99257.72;;;13.68
75658;BMP280;64255;49.892;17.884;2023-05-13T06:00:59;99264.22;;;13.62
75658;BMP280;64255;49.892;17.884;2023-05-13T06:03:46;99262.09;;;13.51
75658;BMP280;64255;49.892;17.884;2023-05-13T06:06:32;99254.41;;;13.44
75658;BMP280;64255;49.892;17.884;2023-05-13T06:09:19;99249.03;;;13.29
75658;BMP280;64255;49.892;17.884;2023-05-13T06:12:06;99254.88;;;13.12
75658;BMP280;64255;49.892;17.884;2023-05-13T06:14:52;99252.94;;;13.13
75658;BMP280;64255;49.892;17.884;2023-05-13T06:17:39;99257.28;;;13.25
75658;BMP280;64255;49.892;17.884;2023-05-13T06:20:25;99261.00;;;13.28
75658;BMP280;64255;49.892;17.884;2023-05-13T06:23:12;99259.88;;;13.34
75658;BMP280;64255;49.892;17.884;2023-05-13T06:25:58;99254.34;;;13.73
75658;BMP280;64255;49.892;17.884;2023-05-13T06:28:45;99252.06;;;13.51
75658;BMP280;64255;49.892;17.884;2023-05-13T06:31:31;99258.13;;;13.82
75658;BMP280;64255;49.892;17.884;2023-05-13T06:34:18;99258.25;;;14.29
75658;BMP280;64255;49.892;17.884;2023-05-13T06:37:04;99250.50;;;14.16
75658;BMP280;64255;49.892;17.884;2023-05-13T06:39:51;99258.47;;;14.25
75658;BMP280;64255;49.892;17.884;2023-05-13T06:42:37;99254.81;;;14.28
75658;BMP280;64255;49.892;17.884;2023-05-13T06:45:24;99258.78;;;14.80
75658;BMP280;64255;49.892;17.884;2023-05-13T06:48:12;99253.31;;;14.95
75658;BMP280;64255;49.892;17.884;2023-05-13T06:50:58;99260.34;;;15.18
75658;BMP280;64255;49.892;17.884;2023-05-13T06:53:45;99261.19;;;14.98
75658;BMP280;64255;49.892;17.884;2023-05-13T06:56:32;99263.44;;;15.05
75658;BMP280;64255;49.892;17.884;2023-05-13T06:59:19;99257.53;;;15.07
75658;BMP280;64255;49.892;17.884;2023-05-13T07:02:06;99251.50;;;15.12
75658;BMP280;64255;49.892;17.884;2023-05-13T07:04:52;99261.09;;;15.19
75658;BMP280;64255;49.892;17.884;2023-05-13T07:07:39;99253.84;;;15.68
75658;BMP280;64255;49.892;17.884;2023-05-13T07:10:26;99250.84;;;15.66
75658;BMP280;64255;49.892;17.884;2023-05-13T07:13:12;99246.47;;;16.29
75658;BMP280;64255;49.892;17.884;2023-05-13T07:15:59;99256.50;;;16.17
75658;BMP280;64255;49.892;17.884;2023-05-13T07:18:46;99253.81;;;16.23
75658;BMP280;64255;49.892;17.884;2023-05-13T07:21:32;99241.56;;;16.39
75658;BMP280;64255;49.892;17.884;2023-05-13T07:24:19;99244.00;;;16.20
75658;BMP280;64255;49.892;17.884;2023-05-13T07:27:05;99249.00;;;16.72
75658;BMP280;64255;49.892;17.884;2023-05-13T07:29:52;99242.47;;;16.07
75658;BMP280;64255;49.892;17.884;2023-05-13T07:32:39;99237.22;;;15.43
75658;BMP280;64255;49.892;17.884;2023-05-13T07:35:26;99246.34;;;15.14
75658;BMP280;64255;49.892;17.884;2023-05-13T07:38:13;99238.44;;;15.05
75658;BMP280;64255;49.892;17.884;2023-05-13T07:40:59;99241.69;;;14.88
75658;BMP280;64255;49.892;17.884;2023-05-13T07:43:46;99239.38;;;14.70
75658;BMP280;64255;49.892;17.884;2023-05-13T07:46:32;99248.00;;;14.53
75658;BMP280;64255;49.892;17.884;2023-05-13T07:49:20;99243.09;;;14.52
75658;BMP280;64255;49.892;17.884;2023-05-13T07:52:06;99247.91;;;14.68
75658;BMP280;64255;49.892;17.884;2023-05-13T07:54:53;99249.81;;;14.62
75658;BMP280;64255;49.892;17.884;2023-05-13T07:57:40;99247.84;;;14.63
75658;BMP280;64255;49.892;17.884;2023-05-13T08:00:26;99246.34;;;14.82
75658;BMP280;64255;49.892;17.884;2023-05-13T08:03:13;99250.75;;;14.85
75658;BMP280;64255;49.892;17.884;2023-05-13T08:05:59;99251.22;;;15.10
75658;BMP280;64255;49.892;17.884;2023-05-13T08:08:46;99249.03;;;15.14
75658;BMP280;64255;49.892;17.884;2023-05-13T08:11:32;99254.47;;;14.88
75658;BMP280;64255;49.892;17.884;2023-05-13T08:14:19;99249.44;;;14.75
75658;BMP280;64255;49.892;17.884;2023-05-13T08:17:06;99247.28;;;14.79
75658;BMP280;64255;49.892;17.884;2023-05-13T08:19:52;99253.94;;;14.57
75658;BMP280;64255;49.892;17.884;2023-05-13T08:22:39;99250.31;;;14.66
75658;BMP280;64255;49.892;17.884;2023-05-13T08:25:26;99243.75;;;14.94
75658;BMP280;64255;49.892;17.884;2023-05-13T08:28:12;99245.78;;;14.78
75658;BMP280;64255;49.892;17.884;2023-05-13T08:30:59;99244.47;;;15.26
75658;BMP280;64255;49.892;17.884;2023-05-13T08:33:45;99249.69;;;15.73
75658;BMP280;64255;49.892;17.884;2023-05-13T08:36:31;99245.34;;;15.98
75658;BMP280;64255;49.892;17.884;2023-05-13T08:39:18;99250.03;;;15.92
75658;BMP280;64255;49.892;17.884;2023-05-13T08:42:08;99248.53;;;15.48
75658;BMP280;64255;49.892;17.884;2023-05-13T08:44:55;99248.50;;;15.42
75658;BMP280;64255;49.892;17.884;2023-05-13T08:48:00;99248.47;;;15.36
75658;BMP280;64255;49.892;17.884;2023-05-13T08:50:48;99249.00;;;15.40
75658;BMP280;64255;49.892;17.884;2023-05-13T08:53:37;99250.81;;;15.17
75658;BMP280;64255;49.892;17.884;2023-05-13T08:56:25;99247.09;;;15.47
75658;BMP280;64255;49.892;17.884;2023-05-13T08:59:12;99244.25;;;15.67
75658;BMP280;64255;49.892;17.884;2023-05-13T09:01:58;99252.16;;;15.82
75658;BMP280;64255;49.892;17.884;2023-05-13T09:04:53;99248.81;;;15.99
75658;BMP280;64255;49.892;17.884;2023-05-13T09:07:39;99249.47;;;15.82
75658;BMP280;64255;49.892;17.884;2023-05-13T09:10:26;99243.38;;;15.93
75658;BMP280;64255;49.892;17.884;2023-05-13T09:13:15;99252.59;;;16.29
75658;BMP280;64255;49.892;17.884;2023-05-13T09:16:02;99248.31;;;16.00
75658;BMP280;64255;49.892;17.884;2023-05-13T09:18:48;99250.44;;;16.51
75658;BMP280;64255;49.892;17.884;2023-05-13T09:21:35;99242.69;;;16.09
75658;BMP280;64255;49.892;17.884;2023-05-13T09:24:22;99248.66;;;16.19
75658;BMP280;64255;49.892;17.884;2023-05-13T09:27:09;99249.13;;;16.18
75658;BMP280;64255;49.892;17.884;2023-05-13T09:29:59;99245.41;;;16.09
75658;BMP280;64255;49.892;17.884;2023-05-13T09:33:11;99244.34;;;16.67
75658;BMP280;64255;49.892;17.884;2023-05-13T09:35:57;99252.13;;;16.25
75658;BMP280;64255;49.892;17.884;2023-05-13T09:38:44;99241.53;;;16.33
75658;BMP280;64255;49.892;17.884;2023-05-13T09:41:30;99245.00;;;16.34
75658;BMP280;64255;49.892;17.884;2023-05-13T09:44:17;99253.75;;;16.11
75658;BMP280;64255;49.892;17.884;2023-05-13T09:47:04;99252.16;;;16.48
75658;BMP280;64255;49.892;17.884;2023-05-13T09:49:55;99245.78;;;16.51
75658;BMP280;64255;49.892;17.884;2023-05-13T09:52:41;99239.91;;;16.64
75658;BMP280;64255;49.892;17.884;2023-05-13T09:55:30;99245.31;;;17.09
75658;BMP280;64255;49.892;17.884;2023-05-13T09:58:18;99249.25;;;16.91
75658;BMP280;64255;49.892;17.884;2023-05-13T10:01:05;99246.06;;;17.10
75658;BMP280;64255;49.892;17.884;2023-05-13T10:03:56;99251.41;;;17.49
75658;BMP280;64255;49.892;17.884;2023-05-13T10:06:44;99251.47;;;16.87
75658;BMP280;64255;49.892;17.884;2023-05-13T10:09:36;99241.66;;;16.78
75658;BMP280;64255;49.892;17.884;2023-05-13T10:12:25;99245.31;;;17.26
75658;BMP280;64255;49.892;17.884;2023-05-13T10:15:11;99245.31;;;16.98
75658;BMP280;64255;49.892;17.884;2023-05-13T10:17:59;99239.66;;;17.19
75658;BMP280;64255;49.892;17.884;2023-05-13T10:20:47;99233.25;;;17.22
75658;BMP280;64255;49.892;17.884;2023-05-13T10:23:35;99227.63;;;16.91
75658;BMP280;64255;49.892;17.884;2023-05-13T10:26:23;99225.38;;;17.24
75658;BMP280;64255;49.892;17.884;2023-05-13T10:29:10;99234.50;;;17.04
75658;BMP280;64255;49.892;17.884;2023-05-13T10:31:57;99233.28;;;17.16
75658;BMP280;64255;49.892;17.884;2023-05-13T10:34:46;99235.50;;;17.01
75658;BMP280;64255;49.892;17.884;2023-05-13T10:38:49;99227.56;;;17.37
75658;BMP280;64255;49.892;17.884;2023-05-13T10:44:43;99232.28;;;17.13
75658;BMP280;64255;49.892;17.884;2023-05-13T10:47:33;99223.16;;;17.28
75658;BMP280;64255;49.892;17.884;2023-05-13T10:50:24;99225.38;;;17.35
75658;BMP280;64255;49.892;17.884;2023-05-13T10:53:23;99217.97;;;17.36
75658;BMP280;64255;49.892;17.884;2023-05-13T10:56:09;99217.88;;;17.75
75658;BMP280;64255;49.892;17.884;2023-05-13T10:59:04;99222.81;;;17.71
75658;BMP280;64255;49.892;17.884;2023-05-13T11:01:51;99220.47;;;17.05
75658;BMP280;64255;49.892;17.884;2023-05-13T11:04:58;99224.91;;;16.86
75658;BMP280;64255;49.892;17.884;2023-05-13T11:07:56;99230.84;;;16.90
75658;BMP280;64255;49.892;17.884;2023-05-13T11:10:53;99229.09;;;17.04
75658;BMP280;64255;49.892;17.884;2023-05-13T11:13:40;99221.72;;;17.27
75658;BMP280;64255;49.892;17.884;2023-05-13T11:16:26;99224.19;;;16.74
75658;BMP280;64255;49.892;17.884;2023-05-13T11:22:22;99242.03;;;16.26
75658;BMP280;64255;49.892;17.884;2023-05-13T11:25:09;99229.75;;;16.25
75658;BMP280;64255;49.892;17.884;2023-05-13T11:27:58;99235.88;;;16.08
75658;BMP280;64255;49.892;17.884;2023-05-13T11:30:53;99239.25;;;15.98
75658;BMP280;64255;49.892;17.884;2023-05-13T11:34:17;99228.16;;;15.90
75658;BMP280;64255;49.892;17.884;2023-05-13T11:39:50;99230.16;;;15.95
75658;BMP280;64255;49.892;17.884;2023-05-13T11:42:38;99233.25;;;15.82
75658;BMP280;64255;49.892;17.884;2023-05-13T11:45:27;99237.75;;;15.97
75658;BMP280;64255;49.892;17.884;2023-05-13T11:48:22;99242.66;;;15.98
75658;BMP280;64255;49.892;17.884;2023-05-13T11:51:09;99236.75;;;15.94
75658;BMP280;64255;49.892;17.884;2023-05-13T11:54:00;99237.75;;;15.97
75658;BMP280;64255;49.892;17.884;2023-05-13T11:56:47;99240.47;;;15.97
75658;BMP280;64255;49.892;17.884;2023-05-13T11:59:33;99240.53;;;16.13
75658;BMP280;64255;49.892;17.884;2023-05-13T12:02:23;99248.31;;;16.00
75658;BMP280;64255;49.892;17.884;2023-05-13T12:05:11;99244.94;;;16.17
75658;BMP280;64255;49.892;17.884;2023-05-13T12:07:57;99241.69;;;16.01
75658;BMP280;64255;49.892;17.884;2023-05-13T12:10:44;99241.00;;;16.06
75658;BMP280;64255;49.892;17.884;2023-05-13T12:13:31;99246.41;;;16.06
75658;BMP280;64255;49.892;17.884;2023-05-13T12:16:18;99252.47;;;15.95
75658;BMP280;64255;49.892;17.884;2023-05-13T12:19:05;99245.41;;;16.04
75658;BMP280;64255;49.892;17.884;2023-05-13T12:21:51;99245.66;;;16.06
75658;BMP280;64255;49.892;17.884;2023-05-13T12:24:38;99254.22;;;16.04
75658;BMP280;64255;49.892;17.884;2023-05-13T12:27:24;99251.75;;;15.95
75658;BMP280;64255;49.892;17.884;2023-05-13T12:30:14;99250.03;;;15.92
75658;BMP280;64255;49.892;17.884;2023-05-13T12:33:00;99244.34;;;15.90
75658;BMP280;64255;49.892;17.884;2023-05-13T12:35:51;99253.00;;;16.00
75658;BMP280;64255;49.892;17.884;2023-05-13T12:38:38;99255.22;;;16.01
75658;BMP280;64255;49.892;17.884;2023-05-13T12:41:49;99253.50;;;16.04
75658;BMP280;64255;49.892;17.884;2023-05-13T12:44:36;99260.63;;;16.07
75658;BMP280;64255;49.892;17.884;2023-05-13T12:47:23;99252.09;;;16.14
75658;BMP280;64255;49.892;17.884;2023-05-13T12:50:10;99252.31;;;16.16
75658;BMP280;64255;49.892;17.884;2023-05-13T12:52:57;99254.03;;;16.13
75658;BMP280;64255;49.892;17.884;2023-05-13T12:55:43;99257.56;;;16.37
75658;BMP280;64255;49.892;17.884;2023-05-13T12:58:30;99253.81;;;16.23
75658;BMP280;64255;49.892;17.884;2023-05-13T13:01:17;99256.25;;;16.21
75658;BMP280;64255;49.892;17.884;2023-05-13T13:04:03;99261.19;;;16.28
75658;BMP280;64255;49.892;17.884;2023-05-13T13:06:50;99257.72;;;16.22
75658;BMP280;64255;49.892;17.884;2023-05-13T13:09:37;99253.28;;;16.07
75658;BMP280;64255;49.892;17.884;2023-05-13T13:12:23;99247.00;;;16.44
75658;BMP280;64255;49.892;17.884;2023-05-13T13:15:10;99244.22;;;16.27
75658;BMP280;64255;49.892;17.884;2023-05-13T13:17:57;99241.06;;;16.29
75658;BMP280;64255;49.892;17.884;2023-05-13T13:20:43;99246.03;;;16.47
75658;BMP280;64255;49.892;17.884;2023-05-13T13:23:30;99244.47;;;16.24
75658;BMP280;64255;49.892;17.884;2023-05-13T13:26:16;99233.44;;;16.33
75658;BMP280;64255;49.892;17.884;2023-05-13T13:29:03;99238.41;;;16.46
75658;BMP280;64255;49.892;17.884;2023-05-13T13:31:49;99231.50;;;16.34
75658;BMP280;64255;49.892;17.884;2023-05-13T13:34:36;99237.38;;;16.26
75658;BMP280;64255;49.892;17.884;2023-05-13T13:37:22;99237.63;;;16.34
75658;BMP280;64255;49.892;17.884;2023-05-13T13:40:10;99244.44;;;16.12
75658;BMP280;64255;49.892;17.884;2023-05-13T13:42:56;99230.00;;;16.33
75658;BMP280;64255;49.892;17.884;2023-05-13T13:45:43;99231.00;;;16.29
75658;BMP280;64255;49.892;17.884;2023-05-13T13:48:29;99227.06;;;16.25
75658;BMP280;64255;49.892;17.884;2023-05-13T13:51:16;99230.94;;;16.12
75658;BMP280;64255;49.892;17.884;2023-05-13T13:54:06;99232.16;;;16.11
75658;BMP280;64255;49.892;17.884;2023-05-13T13:56:52;99229.47;;;16.17
75658;BMP280;64255;49.892;17.884;2023-05-13T13:59:39;99229.72;;;16.13
75658;BMP280;64255;49.892;17.884;2023-05-13T14:02:25;99230.19;;;16.06
75658;BMP280;64255;49.892;17.884;2023-05-13T14:05:12;99233.16;;;16.08
75658;BMP280;64255;49.892;17.884;2023-05-13T14:07:59;99228.75;;;16.17
75658;BMP280;64255;49.892;17.884;2023-05-13T14:10:45;99218.91;;;16.13
75658;BMP280;64255;49.892;17.884;2023-05-13T14:13:31;99224.28;;;16.02
75658;BMP280;64255;49.892;17.884;2023-05-13T14:16:18;99219.34;;;15.95
75658;BMP280;64255;49.892;17.884;2023-05-13T14:19:04;99220.31;;;15.92
75658;BMP280;64255;49.892;17.884;2023-05-13T14:21:51;99223.25;;;15.94
75658;BMP280;64255;49.892;17.884;2023-05-13T14:24:37;99225.19;;;15.88
75658;BMP280;64255;49.892;17.884;2023-05-13T14:27:24;99228.84;;;15.79
75658;BMP280;64255;49.892;17.884;2023-05-13T14:30:10;99226.41;;;15.81
75658;BMP280;64255;49.892;17.884;2023-05-13T14:32:58;99215.81;;;15.77
75658;BMP280;64255;49.892;17.884;2023-05-13T14:35:44;99214.88;;;15.81
75658;BMP280;64255;49.892;17.884;2023-05-13T14:38:30;99215.59;;;15.81
75658;BMP280;64255;49.892;17.884;2023-05-13T14:41:17;99210.00;;;15.85
75658;BMP280;64255;49.892;17.884;2023-05-13T14:44:03;99214.09;;;15.74
75658;BMP280;64255;49.892;17.884;2023-05-13T14:46:50;99215.31;;;15.73
75658;BMP280;64255;49.892;17.884;2023-05-13T14:49:36;99218.28;;;15.75
75658;BMP280;64255;49.892;17.884;2023-05-13T14:52:23;99221.28;;;15.89
75658;BMP280;64255;49.892;17.884;2023-05-13T14:55:09;99216.81;;;15.80
75658;BMP280;64255;49.892;17.884;2023-05-13T14:57:56;99215.59;;;15.75
75658;BMP280;64255;49.892;17.884;2023-05-13T15:00:42;99212.88;;;15.75
75658;BMP280;64255;49.892;17.884;2023-05-13T15:03:29;99211.91;;;15.78
75658;BMP280;64255;49.892;17.884;2023-05-13T15:06:15;99216.56;;;15.78
75658;BMP280;64255;49.892;17.884;2023-05-13T15:09:02;99213.88;;;15.78
75658;BMP280;64255;49.892;17.884;2023-05-13T15:11:49;99215.59;;;15.81
75658;BMP280;64255;49.892;17.884;2023-05-13T15:14:35;99214.66;;;15.90
75658;BMP280;64255;49.892;17.884;2023-05-13T15:17:22;99218.16;;;16.02
75658;BMP280;64255;49.892;17.884;2023-05-13T15:20:08;99206.25;;;15.76
75658;BMP280;64255;49.892;17.884;2023-05-13T15:22:55;99206.31;;;15.99
75658;BMP280;64255;49.892;17.884;2023-05-13T15:25:42;99212.38;;;15.77
75658;BMP280;64255;49.892;17.884;2023-05-13T15:28:28;99202.88;;;15.93
75658;BMP280;64255;49.892;17.884;2023-05-13T15:31:15;99220.63;;;16.11
75658;BMP280;64255;49.892;17.884;2023-05-13T15:34:01;99226.50;;;16.15
75658;BMP280;64255;49.892;17.884;2023-05-13T15:36:48;99213.78;;;16.21
75658;BMP280;64255;49.892;17.884;2023-05-13T15:39:34;99207.13;;;16.17
75658;BMP280;64255;49.892;17.884;2023-05-13T15:42:21;99204.69;;;16.13
75658;BMP280;64255;49.892;17.884;2023-05-13T15:45:08;99210.31;;;16.21
75658;BMP280;64255;49.892;17.884;2023-05-13T15:47:54;99206.34;;;16.05
75658;BMP280;64255;49.892;17.884;2023-05-13T15:50:41;99202.13;;;15.98
75658;BMP280;64255;49.892;17.884;2023-05-13T15:53:27;99202.13;;;15.98
75658;BMP280;64255;49.892;17.884;2023-05-13T15:56:14;99186.69;;;15.99
75658;BMP280;64255;49.892;17.884;2023-05-13T15:59:00;99193.56;;;16.00
75658;BMP280;64255;49.892;17.884;2023-05-13T16:01:47;99186.47;;;16.02
75658;BMP280;64255;49.892;17.884;2023-05-13T16:04:33;99193.81;;;15.96
75658;BMP280;64255;49.892;17.884;2023-05-13T16:07:19;99188.91;;;16.00
75658;BMP280;64255;49.892;17.884;2023-05-13T16:10:06;99183.97;;;15.93
75658;BMP280;64255;49.892;17.884;2023-05-13T16:12:53;99183.75;;;15.91
75658;BMP280;64255;49.892;17.884;2023-05-13T16:15:39;99176.84;;;15.90
75658;BMP280;64255;49.892;17.884;2023-05-13T16:18:26;99182.75;;;15.94
75658;BMP280;64255;49.892;17.884;2023-05-13T16:21:12;99180.53;;;15.92
75658;BMP280;64255;49.892;17.884;2023-05-13T16:23:59;99181.75;;;15.91
75658;BMP280;64255;49.892;17.884;2023-05-13T16:26:45;99174.41;;;15.86
75658;BMP280;64255;49.892;17.884;2023-05-13T16:29:32;99170.97;;;15.91
75658;BMP280;64255;49.892;17.884;2023-05-13T16:32:18;99173.66;;;15.91
75658;BMP280;64255;49.892;17.884;2023-05-13T16:35:06;99166.84;;;16.02
75658;BMP280;64255;49.892;17.884;2023-05-13T16:37:52;99175.13;;;15.98
75658;BMP280;64255;49.892;17.884;2023-05-13T16:40:39;99168.28;;;15.97
75658;BMP280;64255;49.892;17.884;2023-05-13T16:43:25;99165.56;;;15.97
75658;BMP280;64255;49.892;17.884;2023-05-13T16:46:12;99170.78;;;16.12
75658;BMP280;64255;49.892;17.884;2023-05-13T16:48:58;99174.72;;;16.17
75658;BMP280;64255;49.892;17.884;2023-05-13T16:51:45;99157.00;;;16.04
75658;BMP280;64255;49.892;17.884;2023-05-13T16:54:31;99163.88;;;16.00
75658;BMP280;64255;49.892;17.884;2023-05-13T16:57:19;99158.47;;;15.94
